Time;durP1;ratioP1;P1;durP2;ratioP2;P2;SDS_P1;SDS_P2;PMS_P1;PMS_P2;Temp;Humidity;BMP_temperature;BMP_pressure;BME280_temperature;BME280_humidity;BME280_pressure;Samples;Min_cycle;Max_cycle;Signal;HPM_P1;HPM_P2
2023/04/27 00:01:41;;;;;;;5.73;3.47;;;;;;;;;;4996644;28;20207;-75
2023/04/27 00:04:08;;;;;;;6.67;3.50;;;;;;;;;;4996396;28;20207;-75
2023/04/27 00:06:34;;;;;;;5.17;3.90;;;;;;;;;;4996493;28;20266;-75
2023/04/27 00:09:00;;;;;;;6.50;4.17;;;;;;;;;;4996204;28;20218;-75
2023/04/27 00:11:26;;;;;;;5.13;3.40;;;;;;;;;;4995950;28;20773;-75
2023/04/27 00:13:53;;;;;;;6.17;3.60;;;;;;;;;;4996238;28;20222;-75
2023/04/27 00:16:19;;;;;;;4.77;3.17;;;;;;;;;;4996364;28;20237;-75
2023/04/27 00:18:46;;;;;;;6.10;3.47;;;;;;;;;;4996404;28;20207;-75
2023/04/27 00:21:12;;;;;;;5.70;3.83;;;;;;;;;;4996284;28;20210;-75
2023/04/27 00:23:38;;;;;;;6.30;3.90;;;;;;;;;;4995786;28;20214;-75
2023/04/27 00:26:05;;;;;;;5.50;3.87;;;;;;;;;;4995935;28;20231;-75
2023/04/27 00:28:31;;;;;;;4.20;3.10;;;;;;;;;;4996151;28;20270;-75
2023/04/27 00:30:57;;;;;;;5.17;3.30;;;;;;;;;;4996003;28;20238;-75
2023/04/27 00:33:23;;;;;;;6.67;3.23;;;;;;;;;;4996438;28;20218;-75
2023/04/27 00:35:50;;;;;;;4.80;2.90;;;;;;;;;;4996237;28;20227;-75
2023/04/27 00:38:16;;;;;;;4.53;3.03;;;;;;;;;;4996096;28;20290;-75
2023/04/27 00:40:42;;;;;;;5.27;2.67;;;;;;;;;;4996131;28;20203;-75
2023/04/27 00:43:08;;;;;;;6.00;3.27;;;;;;;;;;4996252;28;20211;-75
2023/04/27 00:45:42;;;;;;;5.63;3.37;;;;;;;;;;4996046;28;20224;-75
2023/04/27 00:48:08;;;;;;;5.53;3.60;;;;;;;;;;4996150;28;20191;-78
2023/04/27 00:50:34;;;;;;;4.30;2.93;;;;;;;;;;4995888;28;20233;-78
2023/04/27 00:53:01;;;;;;;5.50;3.37;;;;;;;;;;4995928;28;20265;-78
2023/04/27 00:55:27;;;;;;;5.77;3.10;;;;;;;;;;4995798;28;20305;-78
2023/04/27 00:57:54;;;;;;;5.13;3.20;;;;;;;;;;4995863;28;20207;-78
2023/04/27 01:00:21;;;;;;;6.83;3.13;;;;;;;;;;4995547;28;20218;-78
2023/04/27 01:02:48;;;;;;;6.17;3.60;;;;;;;;;;4995850;28;20572;-78
2023/04/27 01:05:14;;;;;;;4.37;3.00;;;;;;;;;;4995976;28;20322;-78
2023/04/27 01:07:40;;;;;;;5.87;3.17;;;;;;;;;;4995504;28;20211;-78
2023/04/27 01:10:07;;;;;;;6.43;3.10;;;;;;;;;;4995989;28;20195;-78
2023/04/27 01:12:33;;;;;;;6.30;3.30;;;;;;;;;;4995551;28;20581;-78
2023/04/27 01:15:00;;;;;;;5.47;3.53;;;;;;;;;;4995631;28;20210;-78
2023/04/27 01:17:26;;;;;;;3.90;3.50;;;;;;;;;;4995668;28;20298;-78
2023/04/27 01:19:54;;;;;;;5.37;3.43;;;;;;;;;;4995639;28;20207;-78
2023/04/27 01:22:20;;;;;;;3.97;3.33;;;;;;;;;;4995635;28;20310;-78
2023/04/27 01:24:47;;;;;;;6.87;3.67;;;;;;;;;;4995078;28;20206;-78
2023/04/27 01:27:13;;;;;;;7.90;3.60;;;;;;;;;;4995590;28;20242;-78
2023/04/27 01:29:40;;;;;;;4.80;4.00;;;;;;;;;;4995240;28;20207;-78
2023/04/27 01:32:06;;;;;;;4.43;3.60;;;;;;;;;;4994901;28;20224;-78
2023/04/27 01:34:32;;;;;;;5.20;3.93;;;;;;;;;;4994107;28;20217;-78
2023/04/27 01:36:58;;;;;;;6.10;3.83;;;;;;;;;;4994811;28;20227;-78
2023/04/27 01:39:25;;;;;;;4.50;3.70;;;;;;;;;;4994750;28;20211;-78
2023/04/27 01:41:51;;;;;;;6.90;3.60;;;;;;;;;;4994983;28;20211;-78
2023/04/27 01:44:19;;;;;;;5.23;3.40;;;;;;;;;;4994693;28;20234;-78
2023/04/27 01:46:45;;;;;;;4.57;3.50;;;;;;;;;;4994931;28;20231;-78
2023/04/27 01:49:12;;;;;;;3.73;3.30;;;;;;;;;;4994862;28;20203;-78
2023/04/27 01:51:38;;;;;;;7.33;3.23;;;;;;;;;;4994850;28;20270;-78
2023/04/27 01:54:05;;;;;;;4.33;3.23;;;;;;;;;;4995372;28;20215;-78
2023/04/27 01:56:31;;;;;;;4.27;2.97;;;;;;;;;;4994778;28;20262;-78
2023/04/27 01:58:57;;;;;;;6.27;2.93;;;;;;;;;;4994669;28;20214;-78
2023/04/27 02:01:23;;;;;;;4.50;3.07;;;;;;;;;;4994745;28;20642;-78
2023/04/27 02:03:50;;;;;;;3.80;2.93;;;;;;;;;;4994638;28;20203;-78
2023/04/27 02:06:16;;;;;;;3.73;2.83;;;;;;;;;;4994624;28;20227;-78
2023/04/27 02:08:42;;;;;;;5.90;3.00;;;;;;;;;;4994278;28;20211;-78
2023/04/27 02:11:09;;;;;;;4.97;3.07;;;;;;;;;;4994584;28;20230;-78
2023/04/27 02:13:35;;;;;;;7.53;3.13;;;;;;;;;;4994806;28;20216;-78
2023/04/27 02:16:03;;;;;;;6.20;3.10;;;;;;;;;;4994517;28;20237;-78
2023/04/27 02:18:31;;;;;;;5.37;2.90;;;;;;;;;;4994580;28;20207;-78
2023/04/27 02:20:57;;;;;;;7.10;3.10;;;;;;;;;;4994696;28;20199;-78
2023/04/27 02:23:23;;;;;;;4.50;3.20;;;;;;;;;;4994194;28;20222;-78
2023/04/27 02:25:50;;;;;;;6.77;3.40;;;;;;;;;;4994413;28;20231;-78
2023/04/27 02:28:16;;;;;;;4.93;2.90;;;;;;;;;;4994284;28;20211;-78
2023/04/27 02:30:42;;;;;;;6.43;3.20;;;;;;;;;;4994144;28;20249;-78
2023/04/27 02:33:09;;;;;;;4.73;3.00;;;;;;;;;;4994336;28;20214;-78
2023/04/27 02:35:35;;;;;;;4.17;3.00;;;;;;;;;;4994341;28;20234;-78
2023/04/27 02:38:01;;;;;;;4.57;2.90;;;;;;;;;;4994574;28;20219;-78
2023/04/27 02:40:27;;;;;;;4.20;2.60;;;;;;;;;;4994332;28;20208;-78
2023/04/27 02:42:53;;;;;;;5.40;3.20;;;;;;;;;;4993919;28;20207;-78
2023/04/27 02:45:20;;;;;;;5.93;3.60;;;;;;;;;;4994490;28;20732;-78
2023/04/27 02:47:47;;;;;;;4.43;2.97;;;;;;;;;;4998427;28;20594;-78
2023/04/27 02:50:13;;;;;;;6.17;2.97;;;;;;;;;;4997968;28;20673;-78
2023/04/27 02:52:39;;;;;;;5.60;3.47;;;;;;;;;;4997990;28;20231;-78
2023/04/27 02:55:06;;;;;;;4.50;3.07;;;;;;;;;;4998130;28;20664;-78
2023/04/27 02:57:32;;;;;;;4.30;2.70;;;;;;;;;;4998175;28;20258;-78
2023/04/27 02:59:58;;;;;;;5.63;2.83;;;;;;;;;;4998076;28;20207;-78
2023/04/27 03:02:25;;;;;;;5.90;3.20;;;;;;;;;;4998893;28;20203;-78
2023/04/27 03:04:54;;;;;;;3.57;2.83;;;;;;;;;;4997795;28;20211;-78
2023/04/27 03:07:21;;;;;;;4.80;2.97;;;;;;;;;;4997902;28;20303;-78
2023/04/27 03:09:48;;;;;;;4.17;2.70;;;;;;;;;;4997911;28;20662;-78
2023/04/27 03:12:14;;;;;;;4.57;3.47;;;;;;;;;;4997842;28;20234;-78
2023/04/27 03:14:40;;;;;;;4.13;3.10;;;;;;;;;;4997705;28;20207;-78
2023/04/27 03:17:06;;;;;;;7.50;3.30;;;;;;;;;;4997803;28;20584;-78
2023/04/27 03:19:32;;;;;;;6.20;2.93;;;;;;;;;;4997867;28;20580;-78
2023/04/27 03:21:59;;;;;;;4.70;3.13;;;;;;;;;;4997643;28;20203;-78
2023/04/27 03:24:25;;;;;;;4.53;3.03;;;;;;;;;;4997442;28;20674;-78
2023/04/27 03:26:52;;;;;;;4.80;3.20;;;;;;;;;;4997457;28;20316;-78
2023/04/27 03:29:18;;;;;;;5.90;3.50;;;;;;;;;;4997531;28;20211;-78
2023/04/27 03:31:44;;;;;;;6.67;3.33;;;;;;;;;;4997257;28;20309;-78
2023/04/27 03:34:11;;;;;;;4.97;3.33;;;;;;;;;;4997506;28;20207;-78
2023/04/27 03:36:37;;;;;;;6.10;3.40;;;;;;;;;;4997231;28;20227;-78
2023/04/27 03:39:03;;;;;;;5.10;3.20;;;;;;;;;;4997598;28;20211;-78
2023/04/27 03:41:29;;;;;;;5.60;3.40;;;;;;;;;;4997260;28;20206;-78
2023/04/27 03:43:56;;;;;;;5.63;3.63;;;;;;;;;;4997576;28;20297;-78
2023/04/27 03:46:22;;;;;;;6.17;3.50;;;;;;;;;;4997674;28;20227;-78
2023/04/27 03:48:48;;;;;;;5.77;3.50;;;;;;;;;;4997245;28;20203;-78
2023/04/27 03:51:15;;;;;;;4.07;3.50;;;;;;;;;;4997006;28;20234;-79
2023/04/27 03:53:41;;;;;;;7.00;3.53;;;;;;;;;;4998530;28;20207;-78
2023/04/27 03:56:07;;;;;;;6.07;3.70;;;;;;;;;;4996778;28;20231;-78
2023/04/27 03:58:33;;;;;;;4.40;3.63;;;;;;;;;;4995680;28;20207;-78
2023/04/27 04:01:00;;;;;;;4.83;3.40;;;;;;;;;;4996624;28;20297;-78
2023/04/27 04:03:26;;;;;;;5.87;4.07;;;;;;;;;;4996449;28;20215;-78
2023/04/27 04:05:52;;;;;;;7.37;4.33;;;;;;;;;;4996609;28;20238;-78
2023/04/27 04:08:19;;;;;;;7.67;4.53;;;;;;;;;;4996318;28;20590;-78
2023/04/27 04:10:45;;;;;;;5.73;4.37;;;;;;;;;;4996627;28;20211;-78
2023/04/27 04:13:11;;;;;;;7.43;4.60;;;;;;;;;;4996649;28;20238;-78
2023/04/27 04:15:37;;;;;;;8.00;4.70;;;;;;;;;;4996533;28;20227;-78
2023/04/27 04:18:04;;;;;;;5.67;4.30;;;;;;;;;;4996716;28;20207;-78
2023/04/27 04:20:30;;;;;;;7.20;5.17;;;;;;;;;;4996221;28;20667;-78
2023/04/27 04:22:56;;;;;;;6.93;4.50;;;;;;;;;;4996079;28;20207;-78
2023/04/27 04:25:24;;;;;;;6.93;4.97;;;;;;;;;;4996419;28;20237;-78
2023/04/27 04:27:51;;;;;;;5.33;4.33;;;;;;;;;;4996252;28;20207;-78
2023/04/27 04:30:18;;;;;;;8.80;4.80;;;;;;;;;;4996437;28;20218;-78
2023/04/27 04:32:44;;;;;;;7.17;4.83;;;;;;;;;;4995966;28;20227;-78
2023/04/27 04:35:11;;;;;;;10.20;5.17;;;;;;;;;;4995846;28;20635;-78
2023/04/27 04:37:37;;;;;;;7.47;4.87;;;;;;;;;;4996024;28;20214;-78
2023/04/27 04:40:07;;;;;;;6.57;5.30;;;;;;;;;;4995964;28;20212;-78
2023/04/27 04:42:33;;;;;;;7.50;5.27;;;;;;;;;;4995812;28;20275;-78
2023/04/27 04:45:00;;;;;;;6.87;5.10;;;;;;;;;;4995550;28;20207;-78
2023/04/27 04:47:26;;;;;;;10.53;5.47;;;;;;;;;;4995874;28;20207;-78
2023/04/27 04:49:52;;;;;;;6.50;5.10;;;;;;;;;;4995757;28;20207;-78
2023/04/27 04:52:18;;;;;;;9.43;5.23;;;;;;;;;;4995746;28;20262;-77
2023/04/27 04:54:45;;;;;;;7.77;5.33;;;;;;;;;;4995518;28;20207;-77
2023/04/27 04:57:11;;;;;;;6.17;5.17;;;;;;;;;;4995411;28;20211;-77
2023/04/27 04:59:37;;;;;;;9.20;5.53;;;;;;;;;;4995156;28;20238;-77
2023/04/27 05:02:03;;;;;;;10.67;6.00;;;;;;;;;;4995287;28;20199;-77
2023/04/27 05:04:30;;;;;;;9.07;6.10;;;;;;;;;;4995193;28;20210;-77
2023/04/27 05:06:56;;;;;;;7.33;6.10;;;;;;;;;;4995198;28;20227;-77
2023/04/27 05:09:22;;;;;;;8.47;5.60;;;;;;;;;;4995011;28;20223;-77
2023/04/27 05:11:48;;;;;;;6.17;5.57;;;;;;;;;;4994703;28;20713;-77
2023/04/27 05:14:15;;;;;;;8.10;5.70;;;;;;;;;;4994768;28;20222;-77
2023/04/27 05:16:41;;;;;;;8.87;5.70;;;;;;;;;;4994692;28;20227;-77
2023/04/27 05:19:07;;;;;;;8.60;6.37;;;;;;;;;;4994927;28;20206;-77
2023/04/27 05:21:34;;;;;;;8.83;5.60;;;;;;;;;;4995411;28;20234;-77
2023/04/27 05:24:00;;;;;;;7.40;5.73;;;;;;;;;;4994968;28;20219;-77
2023/04/27 05:26:26;;;;;;;9.63;6.00;;;;;;;;;;4994657;28;20231;-77
2023/04/27 05:28:53;;;;;;;9.60;5.77;;;;;;;;;;4994505;28;20608;-77
2023/04/27 05:31:19;;;;;;;10.77;6.40;;;;;;;;;;4994217;28;20230;-77
2023/04/27 05:33:45;;;;;;;8.30;6.10;;;;;;;;;;4994284;28;20215;-77
2023/04/27 05:36:12;;;;;;;11.23;6.37;;;;;;;;;;4994612;28;20274;-77
2023/04/27 05:38:39;;;;;;;10.93;6.07;;;;;;;;;;4994203;28;20681;-77
2023/04/27 05:41:05;;;;;;;8.77;6.17;;;;;;;;;;4994014;28;20698;-77
2023/04/27 05:43:33;;;;;;;13.77;6.20;;;;;;;;;;4993963;28;20209;-77
2023/04/27 05:46:00;;;;;;;7.77;5.70;;;;;;;;;;4994761;28;20227;-78
2023/04/27 05:48:26;;;;;;;8.27;5.83;;;;;;;;;;4994341;28;20207;-78
2023/04/27 05:51:04;;;;;;;11.07;6.10;;;;;;;;;;4998796;28;20203;-78
2023/04/27 05:53:32;;;;;;;7.83;5.93;;;;;;;;;;4994810;28;20278;-77
2023/04/27 05:55:59;;;;;;;8.77;5.73;;;;;;;;;;4994164;28;20239;-77
2023/04/27 05:58:26;;;;;;;11.03;5.53;;;;;;;;;;4993995;28;20222;-77
2023/04/27 06:00:53;;;;;;;9.03;6.03;;;;;;;;;;4994333;28;20226;-77
2023/04/27 06:03:19;;;;;;;8.77;5.30;;;;;;;;;;4995016;28;20207;-77
2023/04/27 06:05:45;;;;;;;9.57;5.70;;;;;;;;;;4994254;28;20322;-77
2023/04/27 06:08:12;;;;;;;8.60;5.90;;;;;;;;;;4993900;28;20218;-78
2023/04/27 06:10:38;;;;;;;6.83;5.73;;;;;;;;;;4993884;28;20579;-74
2023/04/27 06:13:05;;;;;;;8.80;5.93;;;;;;;;;;4994188;28;20318;-74
2023/04/27 06:15:31;;;;;;;9.77;5.53;;;;;;;;;;4993938;28;20430;-74
2023/04/27 06:17:57;;;;;;;10.70;5.50;;;;;;;;;;4993911;28;20572;-74
2023/04/27 06:20:23;;;;;;;12.53;5.90;;;;;;;;;;4993525;28;20231;-75
2023/04/27 06:22:50;;;;;;;8.10;5.13;;;;;;;;;;4993821;28;20211;-75
2023/04/27 06:25:16;;;;;;;9.83;5.17;;;;;;;;;;4994117;28;20231;-75
2023/04/27 06:27:42;;;;;;;8.30;5.43;;;;;;;;;;4994076;28;20207;-75
2023/04/27 06:30:09;;;;;;;9.33;5.60;;;;;;;;;;4993803;28;20214;-76
2023/04/27 06:32:35;;;;;;;10.10;6.10;;;;;;;;;;4994260;28;20227;-75
2023/04/27 06:35:01;;;;;;;13.50;6.10;;;;;;;;;;4993928;28;20203;-75
2023/04/27 06:37:27;;;;;;;9.60;5.77;;;;;;;;;;4993997;28;20209;-75
2023/04/27 06:39:54;;;;;;;6.13;5.07;;;;;;;;;;4993953;28;20235;-75
2023/04/27 06:42:20;;;;;;;9.13;5.37;;;;;;;;;;4994304;28;20207;-75
2023/04/27 06:44:46;;;;;;;8.07;5.50;;;;;;;;;;4993783;28;20571;-75
2023/04/27 06:47:13;;;;;;;9.03;5.43;;;;;;;;;;4993602;28;20576;-76
2023/04/27 06:49:39;;;;;;;7.13;5.67;;;;;;;;;;4993842;28;20689;-75
2023/04/27 06:52:06;;;;;;;12.10;5.70;;;;;;;;;;4993772;28;20719;-75
2023/04/27 06:54:32;;;;;;;8.60;5.60;;;;;;;;;;4994050;28;20207;-75
2023/04/27 06:56:58;;;;;;;9.50;5.30;;;;;;;;;;4993559;28;20231;-75
2023/04/27 06:59:24;;;;;;;9.00;5.37;;;;;;;;;;4993729;28;20218;-75
2023/04/27 07:01:51;;;;;;;10.27;5.73;;;;;;;;;;4993611;28;20695;-75
2023/04/27 07:04:17;;;;;;;7.27;5.23;;;;;;;;;;4993785;28;20216;-75
2023/04/27 07:06:43;;;;;;;8.00;5.60;;;;;;;;;;4994058;28;20228;-75
2023/04/27 07:09:10;;;;;;;7.50;5.57;;;;;;;;;;4993423;28;20219;-75
2023/04/27 07:11:36;;;;;;;7.00;5.33;;;;;;;;;;4993570;28;20204;-75
2023/04/27 07:14:02;;;;;;;6.80;5.63;;;;;;;;;;4993901;28;20231;-75
2023/04/27 07:16:28;;;;;;;7.43;5.80;;;;;;;;;;4993686;28;20227;-75
2023/04/27 07:18:54;;;;;;;10.17;5.30;;;;;;;;;;4993701;28;20209;-75
2023/04/27 07:21:21;;;;;;;7.30;5.53;;;;;;;;;;4993571;28;20300;-75
2023/04/27 07:23:47;;;;;;;7.93;5.23;;;;;;;;;;4993673;28;20211;-75
2023/04/27 07:26:13;;;;;;;8.53;5.73;;;;;;;;;;4993766;28;20232;-75
2023/04/27 07:28:40;;;;;;;9.70;5.73;;;;;;;;;;4993594;28;20220;-75
2023/04/27 07:31:06;;;;;;;8.40;5.60;;;;;;;;;;4993584;28;20567;-75
2023/04/27 07:33:33;;;;;;;8.07;5.37;;;;;;;;;;4995915;28;20228;-75
2023/04/27 07:36:00;;;;;;;8.73;5.60;;;;;;;;;;4997668;28;20230;-75
2023/04/27 07:38:27;;;;;;;6.83;5.90;;;;;;;;;;4997098;28;20566;-75
2023/04/27 07:40:54;;;;;;;8.83;5.83;;;;;;;;;;4996732;28;20205;-75
2023/04/27 07:43:21;;;;;;;8.47;5.60;;;;;;;;;;4997013;28;20295;-75
2023/04/27 07:45:48;;;;;;;8.73;5.17;;;;;;;;;;4996792;28;20636;-75
2023/04/27 07:48:15;;;;;;;9.37;5.57;;;;;;;;;;4997642;28;20213;-75
2023/04/27 07:50:41;;;;;;;7.60;5.63;;;;;;;;;;4997205;28;20217;-75
2023/04/27 07:53:07;;;;;;;7.40;5.60;;;;;;;;;;4996859;28;20246;-75
2023/04/27 07:55:33;;;;;;;10.50;6.10;;;;;;;;;;4996478;28;20318;-75
2023/04/27 07:58:00;;;;;;;8.67;5.80;;;;;;;;;;4996862;28;20226;-75
2023/04/27 08:00:26;;;;;;;8.30;5.53;;;;;;;;;;4996650;28;20219;-75
2023/04/27 08:02:53;;;;;;;8.93;5.40;;;;;;;;;;4996879;28;20206;-75
2023/04/27 08:05:20;;;;;;;9.97;5.47;;;;;;;;;;4996703;28;20223;-75
2023/04/27 08:07:46;;;;;;;6.80;5.00;;;;;;;;;;4996535;28;20216;-75
2023/04/27 08:10:12;;;;;;;8.13;5.47;;;;;;;;;;4996762;28;20199;-75
2023/04/27 08:12:39;;;;;;;7.83;4.83;;;;;;;;;;4996306;28;20592;-75
2023/04/27 08:15:06;;;;;;;8.70;4.97;;;;;;;;;;4996207;28;20235;-75
2023/04/27 08:17:33;;;;;;;6.37;4.67;;;;;;;;;;4996682;28;20203;-75
2023/04/27 08:19:59;;;;;;;9.17;5.10;;;;;;;;;;4995998;28;20624;-75
2023/04/27 08:22:26;;;;;;;11.43;4.67;;;;;;;;;;4996010;28;20689;-75
2023/04/27 08:24:52;;;;;;;7.47;4.47;;;;;;;;;;4996074;28;20570;-75
2023/04/27 08:27:18;;;;;;;6.07;4.60;;;;;;;;;;4996095;28;20683;-75
2023/04/27 08:29:45;;;;;;;7.03;4.53;;;;;;;;;;4996035;28;20214;-75
2023/04/27 08:32:12;;;;;;;7.63;4.73;;;;;;;;;;4996353;28;20207;-75
2023/04/27 08:34:38;;;;;;;8.57;4.57;;;;;;;;;;4996268;28;20218;-75
2023/04/27 08:37:04;;;;;;;7.03;4.03;;;;;;;;;;4996008;28;20228;-75
2023/04/27 08:39:30;;;;;;;8.10;4.10;;;;;;;;;;4996057;28;20203;-75
2023/04/27 08:41:57;;;;;;;8.03;4.13;;;;;;;;;;4995841;28;20215;-75
2023/04/27 08:44:23;;;;;;;7.50;4.40;;;;;;;;;;4995163;28;20211;-76
2023/04/27 08:46:50;;;;;;;5.57;3.90;;;;;;;;;;4995996;28;20230;-76
2023/04/27 08:49:17;;;;;;;7.90;4.37;;;;;;;;;;4995697;28;20207;-75
2023/04/27 08:51:43;;;;;;;8.37;4.30;;;;;;;;;;4995483;28;20211;-75
2023/04/27 08:54:10;;;;;;;5.77;4.13;;;;;;;;;;4995791;28;20223;-75
2023/04/27 08:56:36;;;;;;;7.03;4.03;;;;;;;;;;4995680;28;20235;-75
2023/04/27 08:59:03;;;;;;;10.47;4.30;;;;;;;;;;4995536;28;20210;-75
2023/04/27 09:01:31;;;;;;;5.87;4.07;;;;;;;;;;4995195;28;20219;-75
2023/04/27 09:03:58;;;;;;;9.37;4.43;;;;;;;;;;4995579;28;20277;-75
2023/04/27 09:06:31;;;;;;;6.93;3.53;;;;;;;;;;4995539;28;20639;-75
2023/04/27 09:08:57;;;;;;;7.37;3.77;;;;;;;;;;4995295;28;20218;-75
2023/04/27 09:11:37;;;;;;;5.33;3.60;;;;;;;;;;4995473;28;20203;-75
2023/04/27 09:14:14;;;;;;;5.40;3.50;;;;;;;;;;4994920;28;20231;-75
2023/04/27 09:16:41;;;;;;;7.03;3.63;;;;;;;;;;4994752;28;20235;-75
2023/04/27 09:19:07;;;;;;;6.43;3.70;;;;;;;;;;4994749;28;20639;-75
2023/04/27 09:21:33;;;;;;;7.80;3.37;;;;;;;;;;4995240;28;20211;-75
2023/04/27 09:24:09;;;;;;;4.50;3.40;;;;;;;;;;4994592;28;20517;-75
2023/04/27 09:26:37;;;;;;;7.37;3.80;;;;;;;;;;4995337;28;20235;-75
2023/04/27 09:29:03;;;;;;;6.40;3.00;;;;;;;;;;4995201;28;20208;-75
2023/04/27 09:31:32;;;;;;;5.33;3.57;;;;;;;;;;4995435;28;20207;-75
2023/04/27 09:33:58;;;;;;;4.23;3.40;;;;;;;;;;4994897;28;20231;-75
2023/04/27 09:36:25;;;;;;;6.83;3.67;;;;;;;;;;4995093;28;20230;-75
2023/04/27 09:38:52;;;;;;;6.07;3.60;;;;;;;;;;4995147;28;20207;-75
2023/04/27 09:41:18;;;;;;;5.93;3.50;;;;;;;;;;4995026;28;20376;-75
2023/04/27 09:43:46;;;;;;;5.37;3.50;;;;;;;;;;4994938;28;20203;-75
2023/04/27 09:46:12;;;;;;;7.47;3.53;;;;;;;;;;4994470;28;20736;-75
2023/04/27 09:48:38;;;;;;;5.17;3.67;;;;;;;;;;4995056;28;20218;-76
2023/04/27 09:51:05;;;;;;;6.10;4.10;;;;;;;;;;4994753;28;20207;-75
2023/04/27 09:53:44;;;;;;;5.70;3.97;;;;;;;;;;4994746;28;20249;-75
2023/04/27 09:56:11;;;;;;;7.97;4.30;;;;;;;;;;4993706;28;20223;-75
2023/04/27 09:58:37;;;;;;;8.47;4.47;;;;;;;;;;4994503;28;20204;-75
2023/04/27 10:01:03;;;;;;;6.63;4.17;;;;;;;;;;4994576;28;20578;-75
2023/04/27 10:03:50;;;;;;;5.57;3.93;;;;;;;;;;4994623;28;20203;-75
2023/04/27 10:06:31;;;;;;;7.53;4.40;;;;;;;;;;4994143;28;20223;-75
2023/04/27 10:08:58;;;;;;;6.93;4.50;;;;;;;;;;4994100;28;20215;-75
2023/04/27 10:11:33;;;;;;;8.83;4.33;;;;;;;;;;4994329;28;20210;-75
2023/04/27 10:14:06;;;;;;;4.83;3.77;;;;;;;;;;4993561;28;20577;-75
2023/04/27 10:16:39;;;;;;;7.33;4.23;;;;;;;;;;4993725;28;20227;-74
2023/04/27 10:19:09;;;;;;;7.27;4.40;;;;;;;;;;4994196;28;20191;-75
2023/04/27 10:21:35;;;;;;;7.17;4.50;;;;;;;;;;4993957;28;20234;-75
2023/04/27 10:24:07;;;;;;;7.00;4.60;;;;;;;;;;4994170;28;20226;-75
2023/04/27 10:26:33;;;;;;;7.70;4.57;;;;;;;;;;4993730;28;20230;-75
2023/04/27 10:29:07;;;;;;;9.93;4.50;;;;;;;;;;4994688;28;20237;-75
2023/04/27 10:31:33;;;;;;;8.87;4.47;;;;;;;;;;4993620;28;20266;-75
2023/04/27 10:34:09;;;;;;;7.07;4.33;;;;;;;;;;4994012;28;20255;-75
2023/04/27 10:36:36;;;;;;;8.13;4.50;;;;;;;;;;4993898;28;20235;-75
2023/04/27 10:39:04;;;;;;;4.53;4.13;;;;;;;;;;4994137;28;20211;-75
2023/04/27 10:41:36;;;;;;;6.47;4.10;;;;;;;;;;4993890;28;20269;-75
2023/04/27 10:44:20;;;;;;;5.90;4.37;;;;;;;;;;4993803;28;20214;-75
2023/04/27 10:46:49;;;;;;;5.83;4.73;;;;;;;;;;4994255;28;20231;-75
2023/04/27 10:49:16;;;;;;;4.87;4.10;;;;;;;;;;4994067;28;20265;-75
2023/04/27 10:51:42;;;;;;;6.20;4.17;;;;;;;;;;4994009;28;20358;-75
2023/04/27 10:54:08;;;;;;;4.50;4.10;;;;;;;;;;4993690;28;20273;-75
2023/04/27 10:56:35;;;;;;;6.30;4.17;;;;;;;;;;4993745;28;20230;-75
2023/04/27 10:59:05;;;;;;;6.90;4.27;;;;;;;;;;4994520;28;20211;-75
2023/04/27 11:01:31;;;;;;;8.17;4.80;;;;;;;;;;4993943;28;20211;-75
2023/04/27 11:03:58;;;;;;;7.07;4.27;;;;;;;;;;4995051;28;20214;-75
2023/04/27 11:06:24;;;;;;;7.17;4.43;;;;;;;;;;4994275;28;20238;-75
2023/04/27 11:08:50;;;;;;;5.60;4.37;;;;;;;;;;4997392;28;20222;-75
2023/04/27 11:11:17;;;;;;;6.80;4.30;;;;;;;;;;4997768;28;20238;-75
2023/04/27 11:13:44;;;;;;;7.50;4.10;;;;;;;;;;4997072;28;20223;-75
2023/04/27 11:16:10;;;;;;;4.20;3.80;;;;;;;;;;4997517;28;20227;-75
2023/04/27 11:18:37;;;;;;;7.77;4.10;;;;;;;;;;4997388;28;20207;-75
2023/04/27 11:21:08;;;;;;;6.77;4.00;;;;;;;;;;4997026;28;20226;-75
2023/04/27 11:23:36;;;;;;;6.23;4.40;;;;;;;;;;4997131;28;20204;-75
2023/04/27 11:26:09;;;;;;;8.40;4.27;;;;;;;;;;4997428;28;20235;-75
2023/04/27 11:28:35;;;;;;;7.40;4.13;;;;;;;;;;4997321;28;20207;-75
2023/04/27 11:31:03;;;;;;;5.93;4.00;;;;;;;;;;4997582;28;20203;-75
2023/04/27 11:33:29;;;;;;;6.13;4.33;;;;;;;;;;4997099;28;20238;-75
2023/04/27 11:35:56;;;;;;;5.63;4.10;;;;;;;;;;4997169;28;20227;-76
2023/04/27 11:38:22;;;;;;;6.87;4.00;;;;;;;;;;4996891;28;20670;-75
2023/04/27 11:41:03;;;;;;;6.23;4.23;;;;;;;;;;4996725;28;20556;-75
2023/04/27 11:43:29;;;;;;;6.97;4.17;;;;;;;;;;4997142;28;20213;-75
2023/04/27 11:45:57;;;;;;;8.73;3.97;;;;;;;;;;4996593;28;20725;-76
2023/04/27 11:48:23;;;;;;;6.07;4.20;;;;;;;;;;4996954;28;20277;-76
2023/04/27 11:50:52;;;;;;;5.40;4.03;;;;;;;;;;4996953;28;20219;-76
2023/04/27 11:53:28;;;;;;;6.00;4.43;;;;;;;;;;4996859;28;20219;-76
2023/04/27 11:55:54;;;;;;;4.60;3.80;;;;;;;;;;4996627;28;20259;-74
2023/04/27 11:58:20;;;;;;;10.27;5.67;;;;;;;;;;4996914;28;20207;-75
2023/04/27 12:00:47;;;;;;;7.10;4.30;;;;;;;;;;4996847;28;20211;-76
2023/04/27 12:03:13;;;;;;;8.73;4.30;;;;;;;;;;4996378;28;20211;-76
2023/04/27 12:05:49;;;;;;;4.97;4.20;;;;;;;;;;4996564;28;20242;-76
2023/04/27 12:08:16;;;;;;;7.60;4.97;;;;;;;;;;4996408;28;20596;-76
2023/04/27 12:10:43;;;;;;;6.27;4.20;;;;;;;;;;4996153;28;20692;-76
2023/04/27 12:13:09;;;;;;;5.67;4.30;;;;;;;;;;4996314;28;20613;-76
2023/04/27 12:15:35;;;;;;;6.53;4.07;;;;;;;;;;4996421;28;20223;-76
2023/04/27 12:18:01;;;;;;;6.37;4.30;;;;;;;;;;4995533;28;20267;-76
2023/04/27 12:20:28;;;;;;;5.53;4.10;;;;;;;;;;4996226;28;20214;-76
2023/04/27 12:22:54;;;;;;;5.17;3.77;;;;;;;;;;4996235;28;20749;-76
2023/04/27 12:25:20;;;;;;;7.57;4.53;;;;;;;;;;4996357;28;20227;-76
2023/04/27 12:27:47;;;;;;;7.93;4.10;;;;;;;;;;4996000;28;20565;-76
2023/04/27 12:30:14;;;;;;;6.93;4.30;;;;;;;;;;4996206;28;20211;-76
2023/04/27 12:32:41;;;;;;;7.53;4.67;;;;;;;;;;4995908;28;20231;-76
2023/04/27 12:35:08;;;;;;;6.83;4.40;;;;;;;;;;4995614;28;20639;-76
2023/04/27 12:37:34;;;;;;;6.77;4.70;;;;;;;;;;4995910;28;20207;-76
2023/04/27 12:40:01;;;;;;;5.87;4.23;;;;;;;;;;4996661;28;20207;-76
2023/04/27 12:42:27;;;;;;;8.80;5.33;;;;;;;;;;4995437;28;20211;-76
2023/04/27 12:44:53;;;;;;;7.87;4.80;;;;;;;;;;4995769;28;20206;-76
2023/04/27 12:47:21;;;;;;;6.83;4.70;;;;;;;;;;4995564;28;20222;-75
2023/04/27 12:49:47;;;;;;;7.90;5.00;;;;;;;;;;4996009;28;20207;-76
2023/04/27 12:52:13;;;;;;;6.33;4.40;;;;;;;;;;4996436;28;20211;-76
2023/04/27 12:54:40;;;;;;;9.17;5.17;;;;;;;;;;4996324;28;20597;-75
2023/04/27 12:57:06;;;;;;;6.27;4.60;;;;;;;;;;4995678;28;20258;-76
2023/04/27 12:59:33;;;;;;;8.97;5.23;;;;;;;;;;4995569;28;20291;-75
2023/04/27 13:02:00;;;;;;;6.83;4.30;;;;;;;;;;4995364;28;20577;-73
2023/04/27 13:04:26;;;;;;;7.20;4.67;;;;;;;;;;4995094;28;20701;-73
2023/04/27 13:06:53;;;;;;;4.50;4.10;;;;;;;;;;4995083;28;20234;-76
2023/04/27 13:09:20;;;;;;;5.63;4.30;;;;;;;;;;4995123;28;20218;-76
2023/04/27 13:11:46;;;;;;;4.97;4.00;;;;;;;;;;4994969;28;20211;-76
2023/04/27 13:14:12;;;;;;;7.27;4.27;;;;;;;;;;4995321;28;20227;-76
2023/04/27 13:16:39;;;;;;;6.40;4.63;;;;;;;;;;4994833;28;20259;-76
2023/04/27 13:19:05;;;;;;;8.47;4.40;;;;;;;;;;4995043;28;20298;-73
2023/04/27 13:21:32;;;;;;;5.97;3.60;;;;;;;;;;4994944;28;20295;-74
2023/04/27 13:23:58;;;;;;;6.53;3.77;;;;;;;;;;4995056;28;20234;-76
2023/04/27 13:26:25;;;;;;;7.10;4.47;;;;;;;;;;4994935;28;20234;-74
2023/04/27 13:28:51;;;;;;;5.33;3.50;;;;;;;;;;4994705;28;20301;-74
2023/04/27 13:31:17;;;;;;;6.70;3.73;;;;;;;;;;4994530;28;20572;-74
2023/04/27 13:33:44;;;;;;;7.30;3.90;;;;;;;;;;4994264;28;20207;-74
2023/04/27 13:36:11;;;;;;;6.53;4.13;;;;;;;;;;4994311;28;20238;-74
2023/04/27 13:38:38;;;;;;;4.93;4.10;;;;;;;;;;4994491;28;20211;-74
2023/04/27 13:41:05;;;;;;;9.03;4.73;;;;;;;;;;4994595;28;20207;-74
2023/04/27 13:43:31;;;;;;;7.00;4.63;;;;;;;;;;4994077;28;20217;-74
2023/04/27 13:45:58;;;;;;;5.43;4.43;;;;;;;;;;4994526;28;20227;-74
2023/04/27 13:48:24;;;;;;;6.10;4.80;;;;;;;;;;4994519;28;20297;-74
2023/04/27 13:50:51;;;;;;;6.27;4.50;;;;;;;;;;4994095;28;20207;-74
2023/04/27 13:53:17;;;;;;;5.23;4.17;;;;;;;;;;4994358;28;20211;-74
2023/04/27 13:55:44;;;;;;;8.07;5.00;;;;;;;;;;4993783;28;20717;-74
2023/04/27 13:58:10;;;;;;;6.63;4.43;;;;;;;;;;4994267;28;20215;-74
2023/04/27 14:00:37;;;;;;;7.47;4.50;;;;;;;;;;4994541;28;20253;-74
2023/04/27 14:03:04;;;;;;;5.67;4.50;;;;;;;;;;4994623;28;20203;-74
2023/04/27 14:05:30;;;;;;;5.50;4.57;;;;;;;;;;4994117;28;20596;-74
2023/04/27 14:07:57;;;;;;;6.47;3.90;;;;;;;;;;4993544;28;20219;-74
2023/04/27 14:10:23;;;;;;;5.03;3.97;;;;;;;;;;4993916;28;20196;-74
2023/04/27 14:12:49;;;;;;;6.97;4.13;;;;;;;;;;4993947;28;20218;-75
2023/04/27 14:15:16;;;;;;;5.63;4.27;;;;;;;;;;4993427;28;20242;-74
2023/04/27 14:17:42;;;;;;;7.93;4.27;;;;;;;;;;4993507;28;20217;-74
2023/04/27 14:20:08;;;;;;;5.70;4.10;;;;;;;;;;4993655;28;20250;-74
2023/04/27 14:22:35;;;;;;;7.00;4.10;;;;;;;;;;4993841;28;20207;-74
2023/04/27 14:25:01;;;;;;;7.13;3.90;;;;;;;;;;4993414;28;20218;-74
2023/04/27 14:27:27;;;;;;;5.70;3.60;;;;;;;;;;4994047;28;20207;-75
2023/04/27 14:29:54;;;;;;;6.40;3.60;;;;;;;;;;4993987;28;20573;-74
2023/04/27 14:32:21;;;;;;;4.93;3.73;;;;;;;;;;4993835;28;20294;-74
2023/04/27 14:34:47;;;;;;;6.13;4.20;;;;;;;;;;4993085;28;20277;-75
2023/04/27 14:37:13;;;;;;;3.80;3.50;;;;;;;;;;4992958;28;20690;-74
2023/04/27 14:39:40;;;;;;;6.50;4.20;;;;;;;;;;4993354;28;20682;-74
2023/04/27 14:42:06;;;;;;;4.73;4.20;;;;;;;;;;4997095;28;20203;-74